Time;durP1;ratioP1;P1;durP2;ratioP2;P2;SDS_P1;SDS_P2;PMS_P1;PMS_P2;Temp;Humidity;BMP_temperature;BMP_pressure;BME280_temperature;BME280_humidity;BME280_pressure;Samples;Min_cycle;Max_cycle;Signal;HPM_P1;HPM_P2
2021/12/25 00:00:06;;;;;;;18.08;10.02;;;;;;;;;;5042343;28;20059;-52
2021/12/25 00:02:34;;;;;;;23.75;13.38;;;;;;;;;;5042116;28;20465;-52
2021/12/25 00:05:00;;;;;;;13.75;8.20;;;;;;;;;;5041612;28;20075;-56
2021/12/25 00:07:26;;;;;;;13.82;7.90;;;;;;;;;;5041468;28;20025;-50
2021/12/25 00:09:52;;;;;;;17.95;9.25;;;;;;;;;;5041998;28;20025;-48
2021/12/25 00:12:18;;;;;;;19.00;10.75;;;;;;;;;;5041463;28;20840;-54
2021/12/25 00:14:44;;;;;;;19.30;10.05;;;;;;;;;;5043736;28;20056;-56
2021/12/25 00:17:10;;;;;;;38.92;20.15;;;;;;;;;;5041516;28;20064;-50
2021/12/25 00:19:38;;;;;;;36.53;19.58;;;;;;;;;;5041248;28;20033;-55
2021/12/25 00:22:05;;;;;;;27.20;14.50;;;;;;;;;;5042111;28;20513;-53
2021/12/25 00:24:31;;;;;;;26.88;13.25;;;;;;;;;;5041381;28;20550;-51
2021/12/25 00:27:22;;;;;;;18.00;9.13;;;;;;;;;;5041967;28;20051;-53
2021/12/25 00:29:56;;;;;;;21.88;12.50;;;;;;;;;;5042223;28;20027;-50
2021/12/25 00:34:50;;;;;;;18.17;10.73;;;;;;;;;;5041283;28;20029;-52
2021/12/25 00:37:17;;;;;;;28.67;13.45;;;;;;;;;;5042274;28;20174;-50
2021/12/25 00:39:43;;;;;;;22.17;12.02;;;;;;;;;;5041788;28;20036;-50
2021/12/25 00:42:10;;;;;;;75.55;38.60;;;;;;;;;;5042037;28;20467;-52
2021/12/25 00:44:36;;;;;;;71.72;17.70;;;;;;;;;;5040646;28;20031;-52
2021/12/25 00:47:02;;;;;;;21.63;10.98;;;;;;;;;;5041766;28;20151;-56
2021/12/25 00:49:29;;;;;;;21.10;10.80;;;;;;;;;;5041596;28;20157;-47
2021/12/25 00:51:55;;;;;;;26.60;13.82;;;;;;;;;;5041568;28;20105;-49
2021/12/25 00:54:21;;;;;;;36.88;18.70;;;;;;;;;;5042094;28;20029;-49
2021/12/25 00:56:47;;;;;;;19.75;7.78;;;;;;;;;;5041429;28;20090;-50
2021/12/25 00:59:14;;;;;;;10.32;6.43;;;;;;;;;;5041749;28;20035;-51
2021/12/25 01:01:40;;;;;;;12.18;6.82;;;;;;;;;;5042330;28;20834;-50
2021/12/25 01:04:06;;;;;;;29.08;6.15;;;;;;;;;;5040969;28;20039;-52
2021/12/25 01:06:32;;;;;;;14.80;7.60;;;;;;;;;;5041057;28;20102;-49
2021/12/25 01:08:58;;;;;;;17.73;9.32;;;;;;;;;;5040662;28;20021;-51
2021/12/25 01:11:26;;;;;;;24.77;10.27;;;;;;;;;;5041949;28;20033;-50
2021/12/25 01:14:00;;;;;;;25.25;10.68;;;;;;;;;;5040823;28;20821;-48
2021/12/25 01:16:58;;;;;;;31.88;14.93;;;;;;;;;;5048129;28;20056;-53
2021/12/25 01:25:05;;;;;;;20.17;9.90;;;;;;;;;;5048081;28;20032;-52
2021/12/25 01:35:18;;;;;;;11.63;6.55;;;;;;;;;;5048146;28;20032;-50
2021/12/25 01:38:03;;;;;;;14.15;7.43;;;;;;;;;;5048249;28;20028;-50
2021/12/25 01:48:38;;;;;;;9.48;5.45;;;;;;;;;;5051121;28;20043;-53
2021/12/25 01:51:04;;;;;;;10.10;5.40;;;;;;;;;;5051481;28;20028;-52
2021/12/25 01:53:31;;;;;;;10.43;5.70;;;;;;;;;;5051688;28;20566;-47
2021/12/25 01:55:59;;;;;;;15.00;7.30;;;;;;;;;;5050926;28;20040;-51
2021/12/25 01:58:25;;;;;;;9.70;6.10;;;;;;;;;;5051222;28;20813;-51
2021/12/25 02:00:53;;;;;;;19.00;9.18;;;;;;;;;;5050672;28;20025;-48
2021/12/25 02:03:20;;;;;;;29.63;15.80;;;;;;;;;;5051064;28;20365;-51
2021/12/25 02:05:46;;;;;;;9.43;5.47;;;;;;;;;;5051101;28;20081;-49
2021/12/25 02:08:12;;;;;;;20.73;9.43;;;;;;;;;;5050987;28;20032;-55
2021/12/25 02:10:39;;;;;;;21.58;11.27;;;;;;;;;;5051223;28;20290;-49
2021/12/25 02:13:05;;;;;;;18.02;9.13;;;;;;;;;;5050695;28;20056;-48
2021/12/25 02:15:32;;;;;;;15.75;7.85;;;;;;;;;;5046033;28;20489;-51
2021/12/25 02:20:37;;;;;;;12.43;6.88;;;;;;;;;;5043237;28;20695;-54
2021/12/25 02:23:10;;;;;;;11.00;6.28;;;;;;;;;;5043641;28;20043;-48
2021/12/25 02:25:37;;;;;;;15.13;6.85;;;;;;;;;;5043970;28;21413;-50
2021/12/25 02:28:06;;;;;;;10.00;5.55;;;;;;;;;;5043513;28;20059;-54
2021/12/25 02:30:32;;;;;;;9.40;5.35;;;;;;;;;;5043299;28;20140;-51
2021/12/25 02:32:58;;;;;;;12.90;7.38;;;;;;;;;;5043089;28;20035;-49
2021/12/25 02:35:26;;;;;;;14.73;8.05;;;;;;;;;;5044478;28;20540;-51
2021/12/25 02:37:52;;;;;;;14.60;7.57;;;;;;;;;;5043438;28;20585;-52
2021/12/25 02:40:19;;;;;;;28.80;15.65;;;;;;;;;;5043975;28;20025;-47
2021/12/25 02:42:47;;;;;;;30.73;17.45;;;;;;;;;;5043260;28;20110;-48
2021/12/25 02:45:18;;;;;;;13.27;7.80;;;;;;;;;;5043463;28;20370;-49
2021/12/25 02:47:44;;;;;;;11.15;6.65;;;;;;;;;;5042893;28;20090;-47
2021/12/25 02:50:11;;;;;;;14.45;6.85;;;;;;;;;;5043443;28;20037;-52
2021/12/25 02:52:37;;;;;;;14.48;7.60;;;;;;;;;;5042593;28;20021;-49
2021/12/25 02:55:04;;;;;;;26.85;14.50;;;;;;;;;;5042980;28;20502;-50
2021/12/25 02:57:31;;;;;;;28.17;15.18;;;;;;;;;;5042858;28;20462;-50
2021/12/25 03:00:00;;;;;;;25.65;14.35;;;;;;;;;;5043253;28;20468;-51
2021/12/25 03:02:26;;;;;;;18.33;9.18;;;;;;;;;;5042835;28;20025;-48
2021/12/25 03:04:52;;;;;;;22.23;11.18;;;;;;;;;;5043165;28;20040;-48
2021/12/25 03:07:18;;;;;;;10.65;6.32;;;;;;;;;;5044482;28;20028;-50
2021/12/25 03:09:45;;;;;;;20.40;11.88;;;;;;;;;;5044400;28;20029;-53
2021/12/25 03:12:14;;;;;;;22.23;12.25;;;;;;;;;;5042838;28;20029;-49
2021/12/25 03:15:07;;;;;;;15.63;8.43;;;;;;;;;;5065610;28;20049;-48
2021/12/25 03:17:37;;;;;;;21.13;11.23;;;;;;;;;;5074049;28;20079;-47
2021/12/25 03:20:05;;;;;;;20.15;10.68;;;;;;;;;;5074207;28;20032;-48
2021/12/25 03:22:31;;;;;;;28.85;14.77;;;;;;;;;;5074245;28;20149;-48
2021/12/25 03:24:57;;;;;;;10.43;6.72;;;;;;;;;;5074035;28;20028;-52
2021/12/25 03:27:24;;;;;;;11.13;5.50;;;;;;;;;;5073952;28;20086;-48
2021/12/25 03:29:50;;;;;;;13.57;6.30;;;;;;;;;;5074026;28;20032;-48
2021/12/25 03:32:19;;;;;;;11.10;6.15;;;;;;;;;;5074049;28;20141;-47
2021/12/25 03:34:45;;;;;;;14.00;7.32;;;;;;;;;;5073984;28;20104;-47
2021/12/25 03:37:11;;;;;;;10.35;6.47;;;;;;;;;;5073911;28;20024;-48
2021/12/25 03:39:37;;;;;;;9.15;4.55;;;;;;;;;;5073862;28;20074;-48
2021/12/25 03:42:03;;;;;;;9.63;5.57;;;;;;;;;;5073760;28;20033;-48
2021/12/25 03:44:31;;;;;;;20.15;10.82;;;;;;;;;;5073599;28;20032;-48
2021/12/25 03:47:10;;;;;;;7.90;4.78;;;;;;;;;;5073826;28;20028;-49
2021/12/25 03:57:56;;;;;;;10.35;6.05;;;;;;;;;;5073795;28;20537;-48
2021/12/25 04:00:30;;;;;;;10.77;5.63;;;;;;;;;;5073593;28;20035;-48
2021/12/25 04:03:01;;;;;;;18.80;9.23;;;;;;;;;;5073028;28;20151;-47
2021/12/25 04:05:31;;;;;;;10.55;6.75;;;;;;;;;;5073530;28;20029;-49
2021/12/25 04:08:07;;;;;;;17.52;9.23;;;;;;;;;;5073417;28;20056;-49
2021/12/25 04:10:36;;;;;;;16.17;10.15;;;;;;;;;;5057397;28;20162;-47
2021/12/25 04:13:08;;;;;;;12.75;7.28;;;;;;;;;;5073412;28;20070;-47
2021/12/25 04:15:34;;;;;;;7.50;5.45;;;;;;;;;;5073194;28;20040;-47
2021/12/25 04:18:00;;;;;;;12.23;6.68;;;;;;;;;;5073156;28;20043;-47
2021/12/25 04:20:27;;;;;;;11.10;6.40;;;;;;;;;;5073355;28;20024;-47
2021/12/25 04:23:09;;;;;;;11.43;6.38;;;;;;;;;;5073389;28;20023;-47
2021/12/25 04:25:36;;;;;;;17.67;9.85;;;;;;;;;;5073299;28;20025;-49
2021/12/25 04:29:00;;;;;;;22.48;15.05;;;;;;;;;;5073195;28;20027;-49
2021/12/25 05:03:56;;;;;;;29.55;20.75;;;;;;;;;;5073248;28;20050;-48
2021/12/25 05:06:23;;;;;;;26.98;17.08;;;;;;;;;;5072879;28;20020;-49
2021/12/25 05:08:52;;;;;;;26.80;15.43;;;;;;;;;;5073048;28;20078;-48
2021/12/25 05:11:19;;;;;;;15.98;10.07;;;;;;;;;;5073072;28;20032;-49
2021/12/25 05:13:48;;;;;;;10.98;6.80;;;;;;;;;;5072995;28;20016;-49
2021/12/25 05:16:14;;;;;;;16.50;6.70;;;;;;;;;;5076412;28;20064;-48
2021/12/25 05:18:40;;;;;;;7.25;4.45;;;;;;;;;;5076399;28;20491;-49
2021/12/25 05:21:07;;;;;;;9.27;5.03;;;;;;;;;;5076542;28;20025;-49
2021/12/25 05:23:33;;;;;;;10.52;5.22;;;;;;;;;;5076398;28;20036;-49
2021/12/25 05:25:59;;;;;;;6.60;3.85;;;;;;;;;;5076547;28;20036;-47
2021/12/25 05:28:27;;;;;;;8.05;4.68;;;;;;;;;;5076365;28;20107;-49
2021/12/25 05:30:54;;;;;;;7.75;4.60;;;;;;;;;;5076413;28;20104;-49
2021/12/25 05:33:21;;;;;;;10.15;4.95;;;;;;;;;;5076250;28;20027;-49
2021/12/25 05:35:47;;;;;;;8.57;4.13;;;;;;;;;;5076120;28;20031;-51
2021/12/25 05:38:15;;;;;;;7.72;4.90;;;;;;;;;;5075978;28;20123;-49
2021/12/25 05:40:45;;;;;;;6.32;3.55;;;;;;;;;;5076251;28;20027;-49
2021/12/25 05:43:11;;;;;;;11.32;5.95;;;;;;;;;;5076119;28;20035;-49
2021/12/25 05:45:37;;;;;;;10.80;6.40;;;;;;;;;;5075815;28;20027;-49
2021/12/25 05:48:04;;;;;;;14.00;7.93;;;;;;;;;;5075885;28;20025;-48
2021/12/25 05:50:30;;;;;;;10.02;6.15;;;;;;;;;;5076030;28;20035;-49
2021/12/25 05:52:56;;;;;;;17.73;8.63;;;;;;;;;;5075952;28;20020;-49
2021/12/25 05:55:23;;;;;;;19.13;9.13;;;;;;;;;;5075999;28;20028;-49
2021/12/25 05:57:49;;;;;;;18.58;8.32;;;;;;;;;;5075899;28;20024;-51
2021/12/25 06:00:16;;;;;;;16.95;7.63;;;;;;;;;;5075767;28;20032;-50
2021/12/25 06:02:42;;;;;;;19.27;10.10;;;;;;;;;;5075753;28;20033;-49
2021/12/25 06:05:09;;;;;;;22.58;11.27;;;;;;;;;;5075552;28;20053;-51
2021/12/25 06:07:35;;;;;;;17.60;9.70;;;;;;;;;;5075860;28;20039;-49
2021/12/25 06:10:03;;;;;;;18.70;10.55;;;;;;;;;;5075817;28;20388;-50
2021/12/25 06:12:30;;;;;;;11.20;6.47;;;;;;;;;;5075546;28;20031;-48
2021/12/25 06:15:00;;;;;;;6.60;3.83;;;;;;;;;;5075229;28;20041;-49
2021/12/25 06:17:26;;;;;;;8.85;4.82;;;;;;;;;;5075342;28;20033;-48
2021/12/25 06:19:52;;;;;;;4.43;2.58;;;;;;;;;;5075379;28;20029;-48
2021/12/25 06:22:21;;;;;;;6.60;3.05;;;;;;;;;;5075453;28;20020;-50
2021/12/25 06:24:49;;;;;;;8.98;4.97;;;;;;;;;;5074968;28;20024;-48
2021/12/25 06:27:19;;;;;;;6.85;4.30;;;;;;;;;;5075406;28;20024;-48
2021/12/25 06:29:45;;;;;;;6.18;3.50;;;;;;;;;;5075164;28;20016;-48
2021/12/25 06:32:11;;;;;;;7.30;4.15;;;;;;;;;;5075682;28;20024;-48
2021/12/25 06:34:38;;;;;;;12.43;6.45;;;;;;;;;;5075056;28;20028;-48
2021/12/25 06:37:04;;;;;;;9.65;5.25;;;;;;;;;;5075093;28;20029;-48
2021/12/25 06:39:31;;;;;;;11.70;7.45;;;;;;;;;;5075276;28;20385;-48
2021/12/25 06:41:57;;;;;;;21.35;10.77;;;;;;;;;;5075064;28;20130;-48
2021/12/25 06:44:24;;;;;;;33.13;17.10;;;;;;;;;;5074798;28;20024;-48
2021/12/25 06:46:51;;;;;;;32.85;15.65;;;;;;;;;;5074855;28;20495;-48
2021/12/25 06:49:17;;;;;;;26.63;11.75;;;;;;;;;;5074740;28;20036;-49
2021/12/25 06:51:46;;;;;;;16.83;8.35;;;;;;;;;;5074783;28;20040;-48
2021/12/25 06:54:12;;;;;;;15.05;5.97;;;;;;;;;;5074811;28;20023;-48
2021/12/25 06:56:38;;;;;;;14.25;6.53;;;;;;;;;;5074831;28;20357;-46
2021/12/25 06:59:04;;;;;;;15.18;7.22;;;;;;;;;;5074542;28;20033;-46
2021/12/25 07:01:30;;;;;;;10.40;4.90;;;;;;;;;;5074754;28;20388;-46
2021/12/25 07:03:59;;;;;;;16.35;7.93;;;;;;;;;;5074476;28;20029;-47
2021/12/25 07:06:25;;;;;;;17.05;8.27;;;;;;;;;;5074526;28;20476;-47
2021/12/25 07:08:51;;;;;;;16.63;7.95;;;;;;;;;;5074597;28;20051;-47
2021/12/25 07:11:19;;;;;;;14.90;7.50;;;;;;;;;;5074395;28;20078;-47
2021/12/25 07:13:46;;;;;;;13.40;6.88;;;;;;;;;;5074240;28;20029;-47
2021/12/25 07:16:13;;;;;;;14.05;7.93;;;;;;;;;;5074115;28;20041;-47
2021/12/25 07:18:39;;;;;;;17.98;9.43;;;;;;;;;;5074043;28;20032;-47
2021/12/25 07:21:06;;;;;;;19.42;10.60;;;;;;;;;;5074390;28;20024;-46
2021/12/25 07:23:32;;;;;;;23.85;12.98;;;;;;;;;;5074172;28;20044;-47
2021/12/25 07:25:59;;;;;;;21.50;12.30;;;;;;;;;;5074086;28;20021;-47
2021/12/25 07:28:25;;;;;;;19.92;10.95;;;;;;;;;;5074102;28;20024;-48
2021/12/25 07:30:55;;;;;;;15.77;8.45;;;;;;;;;;5073888;28;20016;-48
2021/12/25 07:33:21;;;;;;;15.55;7.75;;;;;;;;;;5073889;28;20058;-49
2021/12/25 07:35:47;;;;;;;13.50;6.53;;;;;;;;;;5073799;28;20024;-48
2021/12/25 07:38:15;;;;;;;12.43;6.63;;;;;;;;;;5073062;28;20068;-48
2021/12/25 07:40:41;;;;;;;9.65;5.35;;;;;;;;;;5073855;28;20058;-49
2021/12/25 07:43:07;;;;;;;14.88;6.75;;;;;;;;;;5074042;28;20052;-48
2021/12/25 07:45:33;;;;;;;10.63;5.20;;;;;;;;;;5073505;28;20028;-49
2021/12/25 07:48:02;;;;;;;12.15;5.72;;;;;;;;;;5073721;28;20431;-50
2021/12/25 07:50:30;;;;;;;18.67;7.25;;;;;;;;;;5073661;28;20169;-48
2021/12/25 07:52:56;;;;;;;18.23;8.00;;;;;;;;;;5073768;28;20029;-48
2021/12/25 07:55:22;;;;;;;18.50;8.23;;;;;;;;;;5073668;28;20033;-48
2021/12/25 07:57:48;;;;;;;17.00;8.20;;;;;;;;;;5073509;28;20373;-48
2021/12/25 08:00:15;;;;;;;30.15;12.30;;;;;;;;;;5073422;28;20081;-47
2021/12/25 08:02:42;;;;;;;38.58;14.32;;;;;;;;;;5073351;28;20586;-47
2021/12/25 08:05:08;;;;;;;30.83;12.93;;;;;;;;;;5073614;28;20021;-47
2021/12/25 08:07:34;;;;;;;29.33;11.90;;;;;;;;;;5073464;28;20492;-50
2021/12/25 08:10:13;;;;;;;38.85;15.18;;;;;;;;;;5073566;28;20036;-49
2021/12/25 08:12:45;;;;;;;30.10;11.60;;;;;;;;;;5073266;28;20198;-51
2021/12/25 08:15:14;;;;;;;15.23;6.32;;;;;;;;;;5073045;28;20072;-48
2021/12/25 08:17:42;;;;;;;10.50;6.35;;;;;;;;;;5073235;28;20032;-48
2021/12/25 08:20:11;;;;;;;26.23;14.07;;;;;;;;;;5073330;28;20089;-47
2021/12/25 08:22:38;;;;;;;48.28;22.65;;;;;;;;;;5073328;28;20071;-50
2021/12/25 08:25:04;;;;;;;35.67;19.35;;;;;;;;;;5073280;28;20407;-47
2021/12/25 08:27:31;;;;;;;35.55;16.92;;;;;;;;;;5073308;28;20077;-48
2021/12/25 08:29:57;;;;;;;35.78;15.52;;;;;;;;;;5073099;28;20021;-49
2021/12/25 08:32:23;;;;;;;30.75;12.05;;;;;;;;;;5073430;28;20023;-48
2021/12/25 08:34:50;;;;;;;19.80;8.48;;;;;;;;;;5072980;28;20029;-48
2021/12/25 08:37:16;;;;;;;27.75;12.30;;;;;;;;;;5073199;28;20074;-48
2021/12/25 08:39:45;;;;;;;29.00;12.68;;;;;;;;;;5073139;28;20077;-48
2021/12/25 08:42:11;;;;;;;15.93;7.57;;;;;;;;;;5073189;28;20153;-48
2021/12/25 08:44:54;;;;;;;16.52;8.43;;;;;;;;;;5072930;28;20052;-48
2021/12/25 08:47:20;;;;;;;18.17;9.02;;;;;;;;;;5072998;28;20086;-49
2021/12/25 08:49:46;;;;;;;13.70;7.45;;;;;;;;;;5076806;28;20021;-48
2021/12/25 08:52:16;;;;;;;21.95;11.45;;;;;;;;;;5077093;28;20028;-47
2021/12/25 08:54:43;;;;;;;16.52;8.88;;;;;;;;;;5077145;28;20016;-48
2021/12/25 08:57:10;;;;;;;11.05;6.65;;;;;;;;;;5077040;28;20024;-48
2021/12/25 08:59:37;;;;;;;17.60;8.75;;;;;;;;;;5076872;28;20734;-47
2021/12/25 09:02:05;;;;;;;18.40;8.20;;;;;;;;;;5076986;28;20031;-47
2021/12/25 09:04:31;;;;;;;13.32;6.82;;;;;;;;;;5076808;28;20028;-47
2021/12/25 09:06:57;;;;;;;14.80;8.30;;;;;;;;;;5076804;28;20021;-48
2021/12/25 09:09:26;;;;;;;12.85;5.30;;;;;;;;;;5076764;28;20037;-49
2021/12/25 09:11:52;;;;;;;12.95;6.63;;;;;;;;;;5076692;28;20024;-48
2021/12/25 09:14:18;;;;;;;16.70;9.45;;;;;;;;;;5076389;28;20075;-49
2021/12/25 09:16:44;;;;;;;16.73;9.20;;;;;;;;;;5076625;28;20031;-47
2021/12/25 09:19:13;;;;;;;20.17;10.10;;;;;;;;;;5076274;28;20036;-49
2021/12/25 09:21:39;;;;;;;32.55;15.18;;;;;;;;;;5058624;28;20137;-48
2021/12/25 09:24:10;;;;;;;24.42;12.30;;;;;;;;;;5076323;28;20025;-49
2021/12/25 09:26:36;;;;;;;20.97;9.93;;;;;;;;;;5076274;28;20013;-50
2021/12/25 09:29:03;;;;;;;18.35;10.18;;;;;;;;;;5076181;28;20269;-49
2021/12/25 09:31:29;;;;;;;19.98;9.25;;;;;;;;;;5076130;28;20029;-49
2021/12/25 09:33:55;;;;;;;18.65;9.65;;;;;;;;;;5075955;28;20056;-51
2021/12/25 09:36:21;;;;;;;20.98;10.90;;;;;;;;;;5076447;28;20442;-47
2021/12/25 09:38:48;;;;;;;15.68;7.88;;;;;;;;;;5076172;28;20048;-48
2021/12/25 09:41:16;;;;;;;36.17;17.17;;;;;;;;;;5076197;28;20027;-47
2021/12/25 09:43:43;;;;;;;20.13;8.85;;;;;;;;;;5075944;28;20036;-49
2021/12/25 09:46:09;;;;;;;31.17;14.43;;;;;;;;;;5058161;28;20031;-49
2021/12/25 09:48:36;;;;;;;26.70;10.85;;;;;;;;;;5076105;28;20028;-47
2021/12/25 09:51:05;;;;;;;51.95;18.52;;;;;;;;;;5075790;28;20028;-47
2021/12/25 09:53:32;;;;;;;55.53;20.85;;;;;;;;;;5075777;28;20016;-49
2021/12/25 09:55:59;;;;;;;31.92;12.82;;;;;;;;;;5075708;28;20104;-48
2021/12/25 09:58:25;;;;;;;28.65;11.93;;;;;;;;;;5075639;28;20060;-49
2021/12/25 10:00:52;;;;;;;26.65;13.98;;;;;;;;;;5074782;28;20040;-46
2021/12/25 10:03:19;;;;;;;45.60;18.42;;;;;;;;;;5075724;28;20040;-48
2021/12/25 10:05:47;;;;;;;22.77;10.55;;;;;;;;;;5075587;28;20036;-48
2021/12/25 10:08:18;;;;;;;24.15;11.82;;;;;;;;;;5075528;28;20381;-49
2021/12/25 10:10:44;;;;;;;36.85;15.38;;;;;;;;;;5075484;28;20021;-47
2021/12/25 10:13:19;;;;;;;33.45;14.63;;;;;;;;;;5075700;28;20090;-52
2021/12/25 10:15:45;;;;;;;22.65;11.52;;;;;;;;;;5075050;28;20057;-46
2021/12/25 10:18:11;;;;;;;26.48;12.32;;;;;;;;;;5075234;28;20028;-48
2021/12/25 10:20:37;;;;;;;32.92;14.23;;;;;;;;;;5074911;28;20059;-47
2021/12/25 10:23:11;;;;;;;21.38;10.57;;;;;;;;;;5074878;28;20070;-49
2021/12/25 10:25:48;;;;;;;35.63;17.33;;;;;;;;;;5074577;28;20434;-46
2021/12/25 10:28:18;;;;;;;40.55;19.13;;;;;;;;;;5074823;28;20020;-46
2021/12/25 10:30:59;;;;;;;46.95;24.25;;;;;;;;;;5072619;28;20108;-48
2021/12/25 10:33:28;;;;;;;15.75;7.68;;;;;;;;;;5072514;28;20471;-48
2021/12/25 10:35:55;;;;;;;12.15;7.63;;;;;;;;;;5075189;28;20460;-47
2021/12/25 10:38:24;;;;;;;13.90;7.90;;;;;;;;;;5072212;28;20107;-46
2021/12/25 10:40:50;;;;;;;25.05;13.68;;;;;;;;;;5074448;28;20032;-54
2021/12/25 10:43:20;;;;;;;38.67;18.58;;;;;;;;;;5074468;28;20013;-57
2021/12/25 10:46:03;;;;;;;17.45;7.38;;;;;;;;;;5074396;28;20025;-58
2021/12/25 10:48:30;;;;;;;13.55;7.43;;;;;;;;;;5072640;28;20376;-59
2021/12/25 10:50:57;;;;;;;18.27;8.10;;;;;;;;;;5074059;28;20029;-57
2021/12/25 10:53:24;;;;;;;19.08;9.73;;;;;;;;;;5071461;28;20016;-62
2021/12/25 10:55:50;;;;;;;24.42;14.27;;;;;;;;;;5074258;28;20023;-63
2021/12/25 10:58:20;;;;;;;26.67;15.73;;;;;;;;;;5074066;28;20036;-55
2021/12/25 11:00:53;;;;;;;27.50;16.75;;;;;;;;;;5071706;28;20017;-61
2021/12/25 11:03:26;;;;;;;53.63;29.75;;;;;;;;;;5073709;28;20107;-53
2021/12/25 11:05:56;;;;;;;48.22;23.92;;;;;;;;;;5073713;28;20088;-48
2021/12/25 11:08:24;;;;;;;49.88;23.88;;;;;;;;;;5073917;28;20389;-50
2021/12/25 11:10:53;;;;;;;42.28;21.40;;;;;;;;;;5073789;28;20024;-52
2021/12/25 11:13:28;;;;;;;55.88;22.58;;;;;;;;;;5073616;28;20567;-50
2021/12/25 11:16:02;;;;;;;60.65;25.40;;;;;;;;;;5073314;28;20408;-52
2021/12/25 11:18:29;;;;;;;55.20;23.38;;;;;;;;;;5071409;28;20071;-53
2021/12/25 11:20:56;;;;;;;56.88;23.77;;;;;;;;;;5073665;28;20017;-54
2021/12/25 11:23:22;;;;;;;33.13;14.30;;;;;;;;;;5073369;28;20021;-51
2021/12/25 11:25:48;;;;;;;51.97;23.23;;;;;;;;;;5073594;28;20086;-52
2021/12/25 11:28:18;;;;;;;53.03;22.40;;;;;;;;;;5073616;28;20457;-53
2021/12/25 11:30:47;;;;;;;31.70;15.82;;;;;;;;;;5070391;28;20028;-51
2021/12/25 11:33:13;;;;;;;38.92;19.00;;;;;;;;;;5073674;28;20532;-55
2021/12/25 11:35:40;;;;;;;21.52;12.02;;;;;;;;;;5073536;28;20032;-53
2021/12/25 11:38:07;;;;;;;29.92;13.95;;;;;;;;;;5073352;28;20077;-53
2021/12/25 11:40:37;;;;;;;35.35;17.17;;;;;;;;;;5070849;28;20503;-52
2021/12/25 11:43:04;;;;;;;25.17;12.73;;;;;;;;;;5073350;28;20028;-53
2021/12/25 11:45:39;;;;;;;19.25;10.40;;;;;;;;;;5073316;28;20032;-54
2021/12/25 11:48:16;;;;;;;23.55;12.80;;;;;;;;;;5073191;28;20059;-46
2021/12/25 11:50:46;;;;;;;22.27;11.10;;;;;;;;;;5070325;28;20028;-42
2021/12/25 11:53:43;;;;;;;23.17;11.27;;;;;;;;;;5062155;28;20605;-42
2021/12/25 11:58:39;;;;;;;32.33;13.43;;;;;;;;;;5040672;28;20048;-50
2021/12/25 12:01:24;;;;;;;20.80;11.05;;;;;;;;;;5041737;28;20025;-43
2021/12/25 12:03:54;;;;;;;21.63;11.05;;;;;;;;;;5041140;28;20039;-51
2021/12/25 12:06:39;;;;;;;23.00;11.65;;;;;;;;;;5040665;28;20059;-45
2021/12/25 12:09:09;;;;;;;18.75;10.43;;;;;;;;;;5041871;28;20080;-46
2021/12/25 12:11:36;;;;;;;26.17;14.68;;;;;;;;;;5040956;28;20021;-53
2021/12/25 12:14:17;;;;;;;23.73;13.13;;;;;;;;;;5041869;28;20032;-46
2021/12/25 12:16:43;;;;;;;;;;;;;;;;;;5080119;28;20107;-50
2021/12/25 12:19:28;;;;;;;43.28;20.30;;;;;;;;;;5074629;28;20337;-48
2021/12/25 12:21:55;;;;;;;51.65;25.75;;;;;;;;;;5093370;28;20032;-53
2021/12/25 12:27:02;;;;;;;44.42;27.30;;;;;;;;;;5093418;28;20039;-50
2021/12/25 12:29:37;;;;;;;36.13;24.33;;;;;;;;;;5093240;28;20077;-52
2021/12/25 12:32:04;;;;;;;119.53;63.63;;;;;;;;;;5093177;28;20063;-48
2021/12/25 12:34:30;;;;;;;143.43;64.72;;;;;;;;;;5093264;28;20070;-51
2021/12/25 12:37:14;;;;;;;111.22;44.65;;;;;;;;;;5093300;28;20028;-49
2021/12/25 12:40:05;;;;;;;111.25;37.65;;;;;;;;;;5093105;28;20038;-51
2021/12/25 12:42:41;;;;;;;205.45;75.30;;;;;;;;;;5074669;28;20107;-49
2021/12/25 12:45:09;;;;;;;100.22;43.30;;;;;;;;;;5093083;28;20036;-45
2021/12/25 12:47:35;;;;;;;86.75;40.63;;;;;;;;;;5092655;28;20028;-51
2021/12/25 12:50:02;;;;;;;76.90;38.47;;;;;;;;;;5091724;28;20032;-52
2021/12/25 12:52:31;;;;;;;49.03;29.17;;;;;;;;;;5092270;28;20288;-47
2021/12/25 12:55:03;;;;;;;70.57;40.15;;;;;;;;;;5073469;28;20506;-51
2021/12/25 12:57:33;;;;;;;45.40;26.20;;;;;;;;;;5092655;28;20035;-42
2021/12/25 13:00:01;;;;;;;39.05;20.50;;;;;;;;;;5092905;28;20028;-50
2021/12/25 13:02:29;;;;;;;61.22;32.72;;;;;;;;;;5092883;28;20357;-57
2021/12/25 13:04:58;;;;;;;59.63;34.15;;;;;;;;;;5092830;28;20103;-52
2021/12/25 13:07:24;;;;;;;69.03;37.92;;;;;;;;;;5093107;28;20028;-57
2021/12/25 13:09:59;;;;;;;80.30;46.15;;;;;;;;;;5094265;28;20021;-52
2021/12/25 13:15:32;;;;;;;;;;;;;;;;;;5010890;28;20092;-53
2021/12/25 13:18:00;;;;;;;83.05;37.28;;;;;;;;;;5010614;28;20320;-52
2021/12/25 13:20:35;;;;;;;65.03;27.50;;;;;;;;;;5010749;28;20034;-53
2021/12/25 13:23:03;;;;;;;43.53;22.92;;;;;;;;;;5010866;28;20030;-44
2021/12/25 13:25:29;;;;;;;54.22;26.33;;;;;;;;;;5010478;28;20045;-54
2021/12/25 13:28:02;;;;;;;72.72;36.05;;;;;;;;;;5010791;28;20033;-57
2021/12/25 13:30:30;;;;;;;40.83;23.50;;;;;;;;;;5010905;28;20026;-49
2021/12/25 13:33:06;;;;;;;119.53;71.88;;;;;;;;;;5010798;28;20495;-55
2021/12/25 13:35:32;;;;;;;22.08;13.27;;;;;;;;;;5012315;28;20030;-63
2021/12/25 13:37:59;;;;;;;21.17;9.88;;;;;;;;;;5014212;28;20068;-58
2021/12/25 13:40:26;;;;;;;13.82;7.88;;;;;;;;;;5014818;28;20110;-62
2021/12/25 13:42:52;;;;;;;15.73;9.15;;;;;;;;;;5014807;28;20584;-63
2021/12/25 13:45:20;;;;;;;15.75;8.65;;;;;;;;;;5014883;28;20045;-55
2021/12/25 13:47:46;;;;;;;22.05;10.88;;;;;;;;;;5019092;28;20486;-62
2021/12/25 13:50:12;;;;;;;26.20;12.95;;;;;;;;;;5025166;28;20082;-57
2021/12/25 13:52:46;;;;;;;27.85;12.70;;;;;;;;;;5074822;28;20353;-57
2021/12/25 13:55:17;;;;;;;30.58;14.48;;;;;;;;;;5075560;28;20033;-60
2021/12/25 13:57:45;;;;;;;16.23;8.57;;;;;;;;;;5075341;28;20024;-58
2021/12/25 14:00:14;;;;;;;13.10;7.97;;;;;;;;;;5072383;28;20288;-60
2021/12/25 14:02:41;;;;;;;16.50;9.00;;;;;;;;;;5076109;28;20061;-61
2021/12/25 14:05:08;;;;;;;13.88;9.00;;;;;;;;;;5075884;28;20052;-61
2021/12/25 14:07:35;;;;;;;15.23;7.43;;;;;;;;;;5075366;28;20028;-52
2021/12/25 14:10:03;;;;;;;17.63;9.15;;;;;;;;;;5075135;28;20498;-58
2021/12/25 14:12:34;;;;;;;14.05;7.55;;;;;;;;;;5074864;28;20032;-62
2021/12/25 14:15:01;;;;;;;16.08;9.45;;;;;;;;;;5075457;28;20041;-58
2021/12/25 14:17:31;;;;;;;17.60;9.00;;;;;;;;;;5075410;28;20066;-60
2021/12/25 14:20:13;;;;;;;17.80;9.35;;;;;;;;;;5074856;28;20508;-62
2021/12/25 14:22:39;;;;;;;15.30;9.38;;;;;;;;;;5074475;28;20038;-65
2021/12/25 14:25:06;;;;;;;19.73;10.77;;;;;;;;;;5074958;28;20028;-64
2021/12/25 14:27:32;;;;;;;21.23;11.45;;;;;;;;;;5072255;28;20461;-62
2021/12/25 14:30:12;;;;;;;21.85;12.13;;;;;;;;;;5075315;28;20029;-64
2021/12/25 14:32:38;;;;;;;19.98;11.52;;;;;;;;;;5073103;28;20580;-60
2021/12/25 14:35:17;;;;;;;24.60;14.15;;;;;;;;;;5074703;28;20025;-60
2021/12/25 14:37:43;;;;;;;31.88;18.13;;;;;;;;;;5073360;28;20020;-61
2021/12/25 14:40:17;;;;;;;29.85;16.35;;;;;;;;;;5056415;28;20032;-64
2021/12/25 14:42:45;;;;;;;27.63;13.18;;;;;;;;;;5074550;28;20008;-54
2021/12/25 14:45:12;;;;;;;26.80;14.98;;;;;;;;;;5071533;28;20020;-62
2021/12/25 14:47:49;;;;;;;25.60;13.23;;;;;;;;;;5074081;28;20472;-62
2021/12/25 14:50:17;;;;;;;21.55;12.27;;;;;;;;;;5073759;28;20028;-56
2021/12/25 14:52:44;;;;;;;20.80;10.80;;;;;;;;;;5074500;28;20057;-66
2021/12/25 14:55:17;;;;;;;25.10;14.43;;;;;;;;;;5054989;28;20435;-47
2021/12/25 14:57:44;;;;;;;20.10;11.60;;;;;;;;;;5046273;28;20051;-67
2021/12/25 15:00:11;;;;;;;21.75;11.90;;;;;;;;;;5043757;28;20097;-66
2021/12/25 15:02:38;;;;;;;14.95;9.38;;;;;;;;;;5044164;28;20025;-55
2021/12/25 15:05:04;;;;;;;18.73;11.07;;;;;;;;;;5044010;28;20727;-44
2021/12/25 15:07:34;;;;;;;22.60;12.30;;;;;;;;;;5044279;28;20025;-50
2021/12/25 15:10:01;;;;;;;16.55;10.43;;;;;;;;;;5043818;28;20112;-41
2021/12/25 15:12:34;;;;;;;18.38;10.93;;;;;;;;;;5043775;28;20818;-54
2021/12/25 15:15:10;;;;;;;20.98;11.65;;;;;;;;;;5043373;28;20048;-54
2021/12/25 15:17:37;;;;;;;20.35;11.60;;;;;;;;;;5043250;28;20439;-48
2021/12/25 15:20:12;;;;;;;29.55;17.52;;;;;;;;;;5043266;28;20123;-48
2021/12/25 15:22:38;;;;;;;29.02;17.15;;;;;;;;;;5044892;28;20032;-58
2021/12/25 15:25:15;;;;;;;34.13;17.63;;;;;;;;;;5046081;28;20025;-52
2021/12/25 15:27:45;;;;;;;24.25;15.10;;;;;;;;;;5043504;28;20021;-52
2021/12/25 15:30:18;;;;;;;26.83;14.63;;;;;;;;;;5044211;28;20224;-45
2021/12/25 15:32:46;;;;;;;21.33;13.55;;;;;;;;;;5043208;28;20327;-55
2021/12/25 15:35:15;;;;;;;31.90;16.60;;;;;;;;;;5043245;28;20017;-46
2021/12/25 15:37:46;;;;;;;40.40;24.05;;;;;;;;;;5042950;28;20120;-49
2021/12/25 15:40:14;;;;;;;42.50;25.02;;;;;;;;;;5043028;28;20363;-55
2021/12/25 15:42:41;;;;;;;34.97;21.38;;;;;;;;;;5042770;28;20056;-57
2021/12/25 15:45:07;;;;;;;28.40;17.55;;;;;;;;;;5043132;28;20064;-48
2021/12/25 15:47:34;;;;;;;30.60;18.40;;;;;;;;;;5043120;28;20060;-55